sensor_id;sensor_type;location;lat;lon;timestamp;P1;durP1;ratioP1;P2;durP2;ratioP2
52033;SDS011;38045;52.988;6.536;2023-04-03T00:00:48;1.30;;;0.90;;
52033;SDS011;38045;52.988;6.536;2023-04-03T00:03:14;2.28;;;0.50;;
52033;SDS011;38045;52.988;6.536;2023-04-03T00:05:41;3.33;;;1.13;;
52033;SDS011;38045;52.988;6.536;2023-04-03T00:08:07;1.05;;;0.90;;
52033;SDS011;38045;52.988;6.536;2023-04-03T00:10:34;0.90;;;0.70;;
52033;SDS011;38045;52.988;6.536;2023-04-03T00:13:01;1.17;;;0.25;;
52033;SDS011;38045;52.988;6.536;2023-04-03T00:15:28;3.78;;;1.02;;
52033;SDS011;38045;52.988;6.536;2023-04-03T00:17:54;4.15;;;1.10;;
52033;SDS011;38045;52.988;6.536;2023-04-03T00:20:19;1.65;;;0.57;;
52033;SDS011;38045;52.988;6.536;2023-04-03T00:22:45;7.32;;;1.65;;
52033;SDS011;38045;52.988;6.536;2023-04-03T00:25:11;2.95;;;0.73;;
52033;SDS011;38045;52.988;6.536;2023-04-03T00:27:37;2.15;;;0.98;;
52033;SDS011;38045;52.988;6.536;2023-04-03T00:30:04;2.05;;;0.85;;
52033;SDS011;38045;52.988;6.536;2023-04-03T00:32:31;3.65;;;1.05;;
52033;SDS011;38045;52.988;6.536;2023-04-03T00:34:57;2.10;;;0.60;;
52033;SDS011;38045;52.988;6.536;2023-04-03T00:37:23;6.38;;;1.33;;
52033;SDS011;38045;52.988;6.536;2023-04-03T00:39:48;0.70;;;0.70;;
52033;SDS011;38045;52.988;6.536;2023-04-03T00:42:14;3.75;;;0.73;;
52033;SDS011;38045;52.988;6.536;2023-04-03T00:47:05;1.42;;;0.57;;
52033;SDS011;38045;52.988;6.536;2023-04-03T00:49:34;1.73;;;0.98;;
52033;SDS011;38045;52.988;6.536;2023-04-03T00:52:01;0.82;;;0.80;;
52033;SDS011;38045;52.988;6.536;2023-04-03T00:54:27;1.40;;;1.17;;
52033;SDS011;38045;52.988;6.536;2023-04-03T00:56:53;1.00;;;0.40;;
52033;SDS011;38045;52.988;6.536;2023-04-03T00:59:22;1.60;;;0.77;;
52033;SDS011;38045;52.988;6.536;2023-04-03T01:01:52;3.47;;;0.90;;
52033;SDS011;38045;52.988;6.536;2023-04-03T01:04:27;0.70;;;0.70;;
52033;SDS011;38045;52.988;6.536;2023-04-03T01:06:53;1.75;;;0.85;;
52033;SDS011;38045;52.988;6.536;2023-04-03T01:09:22;0.90;;;0.80;;
52033;SDS011;38045;52.988;6.536;2023-04-03T01:11:47;1.27;;;0.80;;
52033;SDS011;38045;52.988;6.536;2023-04-03T01:14:13;2.83;;;1.30;;
52033;SDS011;38045;52.988;6.536;2023-04-03T01:16:39;0.38;;;0.38;;
52033;SDS011;38045;52.988;6.536;2023-04-03T01:19:06;3.28;;;0.93;;
52033;SDS011;38045;52.988;6.536;2023-04-03T01:21:52;3.03;;;1.02;;
52033;SDS011;38045;52.988;6.536;2023-04-03T01:27:01;0.65;;;0.65;;
52033;SDS011;38045;52.988;6.536;2023-04-03T01:29:29;1.48;;;0.75;;
52033;SDS011;38045;52.988;6.536;2023-04-03T01:31:56;1.13;;;0.82;;
52033;SDS011;38045;52.988;6.536;2023-04-03T01:34:24;4.07;;;1.23;;
52033;SDS011;38045;52.988;6.536;2023-04-03T01:36:50;3.53;;;1.77;;
52033;SDS011;38045;52.988;6.536;2023-04-03T01:39:17;3.78;;;1.45;;
52033;SDS011;38045;52.988;6.536;2023-04-03T01:41:43;4.57;;;2.33;;
52033;SDS011;38045;52.988;6.536;2023-04-03T01:44:09;2.70;;;1.05;;
52033;SDS011;38045;52.988;6.536;2023-04-03T01:46:35;3.13;;;1.10;;
52033;SDS011;38045;52.988;6.536;2023-04-03T01:49:02;1.05;;;0.77;;
52033;SDS011;38045;52.988;6.536;2023-04-03T01:51:29;4.03;;;1.33;;
52033;SDS011;38045;52.988;6.536;2023-04-03T01:53:55;1.30;;;1.13;;
52033;SDS011;38045;52.988;6.536;2023-04-03T01:56:20;3.13;;;0.63;;
52033;SDS011;38045;52.988;6.536;2023-04-03T01:58:46;6.47;;;2.50;;
52033;SDS011;38045;52.988;6.536;2023-04-03T02:01:12;11.60;;;2.63;;
52033;SDS011;38045;52.988;6.536;2023-04-03T02:03:37;2.05;;;1.15;;
52033;SDS011;38045;52.988;6.536;2023-04-03T02:06:03;2.60;;;1.58;;
52033;SDS011;38045;52.988;6.536;2023-04-03T02:08:29;3.50;;;0.98;;
52033;SDS011;38045;52.988;6.536;2023-04-03T02:10:54;1.50;;;0.93;;
52033;SDS011;38045;52.988;6.536;2023-04-03T02:13:20;3.00;;;0.95;;
52033;SDS011;38045;52.988;6.536;2023-04-03T02:15:45;1.40;;;0.75;;
52033;SDS011;38045;52.988;6.536;2023-04-03T02:18:11;4.13;;;1.85;;
52033;SDS011;38045;52.988;6.536;2023-04-03T02:20:37;1.58;;;0.93;;
52033;SDS011;38045;52.988;6.536;2023-04-03T02:23:03;3.15;;;0.93;;
52033;SDS011;38045;52.988;6.536;2023-04-03T02:25:30;2.97;;;1.02;;
52033;SDS011;38045;52.988;6.536;2023-04-03T02:27:56;6.55;;;1.75;;
52033;SDS011;38045;52.988;6.536;2023-04-03T02:30:22;2.75;;;0.93;;
52033;SDS011;38045;52.988;6.536;2023-04-03T02:32:47;2.63;;;1.38;;
52033;SDS011;38045;52.988;6.536;2023-04-03T02:35:13;0.82;;;0.60;;
52033;SDS011;38045;52.988;6.536;2023-04-03T02:37:38;3.65;;;1.50;;
52033;SDS011;38045;52.988;6.536;2023-04-03T02:40:05;3.00;;;1.10;;
52033;SDS011;38045;52.988;6.536;2023-04-03T02:42:31;2.03;;;1.77;;
52033;SDS011;38045;52.988;6.536;2023-04-03T02:44:57;3.15;;;1.65;;
52033;SDS011;38045;52.988;6.536;2023-04-03T02:47:25;7.80;;;1.52;;
52033;SDS011;38045;52.988;6.536;2023-04-03T02:49:51;3.90;;;1.80;;
52033;SDS011;38045;52.988;6.536;2023-04-03T02:52:17;3.92;;;1.25;;
52033;SDS011;38045;52.988;6.536;2023-04-03T02:54:43;3.97;;;1.20;;
52033;SDS011;38045;52.988;6.536;2023-04-03T02:57:09;1.02;;;0.75;;
52033;SDS011;38045;52.988;6.536;2023-04-03T02:59:38;4.10;;;1.63;;
52033;SDS011;38045;52.988;6.536;2023-04-03T03:02:07;3.13;;;1.45;;
52033;SDS011;38045;52.988;6.536;2023-04-03T03:04:33;6.18;;;1.50;;
52033;SDS011;38045;52.988;6.536;2023-04-03T03:06:59;4.88;;;1.08;;
52033;SDS011;38045;52.988;6.536;2023-04-03T03:09:25;15.43;;;3.05;;
52033;SDS011;38045;52.988;6.536;2023-04-03T03:11:51;7.13;;;1.85;;
52033;SDS011;38045;52.988;6.536;2023-04-03T03:14:17;5.78;;;2.08;;
52033;SDS011;38045;52.988;6.536;2023-04-03T03:16:42;5.40;;;1.70;;
52033;SDS011;38045;52.988;6.536;2023-04-03T03:19:08;1.80;;;1.58;;
52033;SDS011;38045;52.988;6.536;2023-04-03T03:21:34;24.98;;;3.05;;
52033;SDS011;38045;52.988;6.536;2023-04-03T03:23:59;2.25;;;1.17;;
52033;SDS011;38045;52.988;6.536;2023-04-03T03:26:25;2.50;;;1.10;;
52033;SDS011;38045;52.988;6.536;2023-04-03T03:28:51;5.72;;;2.60;;
52033;SDS011;38045;52.988;6.536;2023-04-03T03:31:16;2.25;;;1.20;;
52033;SDS011;38045;52.988;6.536;2023-04-03T03:33:42;3.67;;;2.15;;
52033;SDS011;38045;52.988;6.536;2023-04-03T03:36:08;2.60;;;1.42;;
52033;SDS011;38045;52.988;6.536;2023-04-03T03:38:34;5.80;;;1.25;;
52033;SDS011;38045;52.988;6.536;2023-04-03T03:40:59;6.53;;;2.65;;
52033;SDS011;38045;52.988;6.536;2023-04-03T03:43:25;4.57;;;1.42;;
52033;SDS011;38045;52.988;6.536;2023-04-03T03:45:51;4.03;;;1.38;;
52033;SDS011;38045;52.988;6.536;2023-04-03T03:48:18;4.03;;;2.47;;
52033;SDS011;38045;52.988;6.536;2023-04-03T03:50:44;4.38;;;1.40;;
52033;SDS011;38045;52.988;6.536;2023-04-03T03:53:09;5.00;;;1.58;;
52033;SDS011;38045;52.988;6.536;2023-04-03T03:55:35;2.55;;;1.40;;
52033;SDS011;38045;52.988;6.536;2023-04-03T03:58:00;2.92;;;1.27;;
52033;SDS011;38045;52.988;6.536;2023-04-03T04:00:27;7.38;;;2.33;;
52033;SDS011;38045;52.988;6.536;2023-04-03T04:02:52;5.13;;;2.67;;
52033;SDS011;38045;52.988;6.536;2023-04-03T04:05:18;3.83;;;1.45;;
52033;SDS011;38045;52.988;6.536;2023-04-03T04:07:44;5.75;;;1.77;;
52033;SDS011;38045;52.988;6.536;2023-04-03T04:10:10;1.73;;;1.17;;
52033;SDS011;38045;52.988;6.536;2023-04-03T04:12:36;3.92;;;1.70;;
52033;SDS011;38045;52.988;6.536;2023-04-03T04:15:02;5.00;;;2.55;;
52033;SDS011;38045;52.988;6.536;2023-04-03T04:17:28;7.43;;;1.45;;
52033;SDS011;38045;52.988;6.536;2023-04-03T04:19:54;5.78;;;1.45;;
52033;SDS011;38045;52.988;6.536;2023-04-03T04:22:19;6.70;;;2.00;;
52033;SDS011;38045;52.988;6.536;2023-04-03T04:24:45;3.38;;;1.98;;
52033;SDS011;38045;52.988;6.536;2023-04-03T04:27:10;5.32;;;1.65;;
52033;SDS011;38045;52.988;6.536;2023-04-03T04:29:36;4.07;;;1.98;;
52033;SDS011;38045;52.988;6.536;2023-04-03T04:32:05;4.07;;;2.00;;
52033;SDS011;38045;52.988;6.536;2023-04-03T04:34:30;4.18;;;2.58;;
52033;SDS011;38045;52.988;6.536;2023-04-03T04:36:56;11.80;;;3.28;;
52033;SDS011;38045;52.988;6.536;2023-04-03T04:39:22;7.82;;;3.28;;
52033;SDS011;38045;52.988;6.536;2023-04-03T04:41:48;3.70;;;2.03;;
52033;SDS011;38045;52.988;6.536;2023-04-03T04:44:13;7.18;;;2.25;;
52033;SDS011;38045;52.988;6.536;2023-04-03T04:46:39;2.03;;;1.83;;
52033;SDS011;38045;52.988;6.536;2023-04-03T04:49:05;9.52;;;3.45;;
52033;SDS011;38045;52.988;6.536;2023-04-03T04:51:30;9.10;;;4.45;;
52033;SDS011;38045;52.988;6.536;2023-04-03T04:53:56;10.27;;;2.55;;
52033;SDS011;38045;52.988;6.536;2023-04-03T04:56:22;5.07;;;3.17;;
52033;SDS011;38045;52.988;6.536;2023-04-03T04:58:47;2.80;;;1.70;;
52033;SDS011;38045;52.988;6.536;2023-04-03T05:01:13;6.15;;;2.35;;
52033;SDS011;38045;52.988;6.536;2023-04-03T05:03:39;3.65;;;1.73;;
52033;SDS011;38045;52.988;6.536;2023-04-03T05:06:04;5.97;;;2.13;;
52033;SDS011;38045;52.988;6.536;2023-04-03T05:08:30;1.98;;;1.70;;
52033;SDS011;38045;52.988;6.536;2023-04-03T05:10:56;2.97;;;1.55;;
52033;SDS011;38045;52.988;6.536;2023-04-03T05:13:22;3.72;;;1.83;;
52033;SDS011;38045;52.988;6.536;2023-04-03T05:15:47;5.68;;;2.03;;
52033;SDS011;38045;52.988;6.536;2023-04-03T05:18:13;9.43;;;3.42;;
52033;SDS011;38045;52.988;6.536;2023-04-03T05:20:39;3.15;;;1.80;;
52033;SDS011;38045;52.988;6.536;2023-04-03T05:23:05;7.35;;;3.03;;
52033;SDS011;38045;52.988;6.536;2023-04-03T05:25:31;8.45;;;2.00;;
52033;SDS011;38045;52.988;6.536;2023-04-03T05:27:57;3.15;;;1.65;;
52033;SDS011;38045;52.988;6.536;2023-04-03T05:30:22;4.35;;;2.53;;
52033;SDS011;38045;52.988;6.536;2023-04-03T05:32:48;6.07;;;3.42;;
52033;SDS011;38045;52.988;6.536;2023-04-03T05:35:13;5.72;;;3.80;;
52033;SDS011;38045;52.988;6.536;2023-04-03T05:37:39;5.75;;;2.47;;
52033;SDS011;38045;52.988;6.536;2023-04-03T05:40:06;3.47;;;2.15;;
52033;SDS011;38045;52.988;6.536;2023-04-03T05:42:32;3.40;;;2.17;;
52033;SDS011;38045;52.988;6.536;2023-04-03T05:44:58;4.25;;;2.35;;
52033;SDS011;38045;52.988;6.536;2023-04-03T05:47:24;3.97;;;2.72;;
52033;SDS011;38045;52.988;6.536;2023-04-03T05:49:49;7.97;;;2.85;;
52033;SDS011;38045;52.988;6.536;2023-04-03T05:52:31;3.75;;;2.35;;
52033;SDS011;38045;52.988;6.536;2023-04-03T05:55:00;7.18;;;4.13;;
52033;SDS011;38045;52.988;6.536;2023-04-03T05:57:26;7.22;;;2.97;;
52033;SDS011;38045;52.988;6.536;2023-04-03T05:59:51;5.97;;;3.13;;
52033;SDS011;38045;52.988;6.536;2023-04-03T06:02:18;3.58;;;2.60;;
52033;SDS011;38045;52.988;6.536;2023-04-03T06:04:45;6.43;;;2.42;;
52033;SDS011;38045;52.988;6.536;2023-04-03T06:07:18;8.15;;;2.88;;
52033;SDS011;38045;52.988;6.536;2023-04-03T06:09:46;7.18;;;2.30;;
52033;SDS011;38045;52.988;6.536;2023-04-03T06:12:12;6.05;;;3.17;;
52033;SDS011;38045;52.988;6.536;2023-04-03T06:14:38;6.50;;;4.28;;
52033;SDS011;38045;52.988;6.536;2023-04-03T06:17:03;5.10;;;2.80;;
52033;SDS011;38045;52.988;6.536;2023-04-03T06:19:29;5.47;;;2.95;;
52033;SDS011;38045;52.988;6.536;2023-04-03T06:21:55;5.70;;;3.58;;
52033;SDS011;38045;52.988;6.536;2023-04-03T06:24:21;2.88;;;2.67;;
52033;SDS011;38045;52.988;6.536;2023-04-03T06:26:49;9.13;;;3.15;;
52033;SDS011;38045;52.988;6.536;2023-04-03T06:29:16;5.55;;;2.88;;
52033;SDS011;38045;52.988;6.536;2023-04-03T06:31:42;8.48;;;2.80;;
52033;SDS011;38045;52.988;6.536;2023-04-03T06:34:08;9.55;;;3.47;;
52033;SDS011;38045;52.988;6.536;2023-04-03T06:36:33;5.30;;;2.95;;
52033;SDS011;38045;52.988;6.536;2023-04-03T06:38:59;5.00;;;2.45;;
52033;SDS011;38045;52.988;6.536;2023-04-03T06:41:26;4.85;;;2.15;;
52033;SDS011;38045;52.988;6.536;2023-04-03T06:43:52;8.60;;;4.10;;
52033;SDS011;38045;52.988;6.536;2023-04-03T06:46:19;5.18;;;3.05;;
52033;SDS011;38045;52.988;6.536;2023-04-03T06:48:46;10.25;;;2.75;;
52033;SDS011;38045;52.988;6.536;2023-04-03T06:51:17;8.20;;;3.60;;
52033;SDS011;38045;52.988;6.536;2023-04-03T06:53:44;5.85;;;3.42;;
52033;SDS011;38045;52.988;6.536;2023-04-03T06:56:13;8.07;;;4.13;;
52033;SDS011;38045;52.988;6.536;2023-04-03T06:58:39;6.57;;;2.90;;
52033;SDS011;38045;52.988;6.536;2023-04-03T07:01:06;5.18;;;1.83;;
52033;SDS011;38045;52.988;6.536;2023-04-03T07:03:34;3.28;;;1.85;;
52033;SDS011;38045;52.988;6.536;2023-04-03T07:06:00;4.72;;;3.75;;
52033;SDS011;38045;52.988;6.536;2023-04-03T07:08:26;5.50;;;2.25;;
52033;SDS011;38045;52.988;6.536;2023-04-03T07:10:51;4.65;;;1.50;;
52033;SDS011;38045;52.988;6.536;2023-04-03T07:13:17;5.15;;;2.25;;
52033;SDS011;38045;52.988;6.536;2023-04-03T07:15:43;5.35;;;2.20;;
52033;SDS011;38045;52.988;6.536;2023-04-03T07:18:09;5.22;;;2.78;;
52033;SDS011;38045;52.988;6.536;2023-04-03T07:20:34;8.90;;;2.90;;
52033;SDS011;38045;52.988;6.536;2023-04-03T07:23:00;21.90;;;3.97;;
52033;SDS011;38045;52.988;6.536;2023-04-03T07:25:27;2.92;;;1.52;;
52033;SDS011;38045;52.988;6.536;2023-04-03T07:27:53;8.50;;;3.67;;
52033;SDS011;38045;52.988;6.536;2023-04-03T07:30:19;8.57;;;2.22;;
52033;SDS011;38045;52.988;6.536;2023-04-03T07:32:45;7.90;;;3.55;;
52033;SDS011;38045;52.988;6.536;2023-04-03T07:35:11;7.63;;;1.30;;
52033;SDS011;38045;52.988;6.536;2023-04-03T07:37:37;2.00;;;1.80;;
52033;SDS011;38045;52.988;6.536;2023-04-03T07:40:03;2.65;;;1.70;;
52033;SDS011;38045;52.988;6.536;2023-04-03T07:42:29;2.22;;;1.50;;
52033;SDS011;38045;52.988;6.536;2023-04-03T07:44:55;6.82;;;2.00;;
52033;SDS011;38045;52.988;6.536;2023-04-03T07:47:21;4.90;;;2.28;;
52033;SDS011;38045;52.988;6.536;2023-04-03T07:49:47;4.25;;;1.27;;
52033;SDS011;38045;52.988;6.536;2023-04-03T07:52:13;2.83;;;1.55;;
52033;SDS011;38045;52.988;6.536;2023-04-03T07:54:40;4.68;;;1.25;;
52033;SDS011;38045;52.988;6.536;2023-04-03T07:57:06;8.38;;;1.92;;
52033;SDS011;38045;52.988;6.536;2023-04-03T07:59:32;2.65;;;1.65;;
52033;SDS011;38045;52.988;6.536;2023-04-03T08:01:58;5.45;;;2.70;;
52033;SDS011;38045;52.988;6.536;2023-04-03T08:04:23;3.03;;;1.30;;
52033;SDS011;38045;52.988;6.536;2023-04-03T08:06:50;3.22;;;2.42;;
52033;SDS011;38045;52.988;6.536;2023-04-03T08:09:15;2.10;;;0.90;;
52033;SDS011;38045;52.988;6.536;2023-04-03T08:11:41;2.70;;;0.85;;
52033;SDS011;38045;52.988;6.536;2023-04-03T08:14:08;2.63;;;0.85;;
52033;SDS011;38045;52.988;6.536;2023-04-03T08:16:35;3.28;;;1.20;;
52033;SDS011;38045;52.988;6.536;2023-04-03T08:19:01;2.45;;;1.17;;
52033;SDS011;38045;52.988;6.536;2023-04-03T08:21:27;2.10;;;1.00;;
52033;SDS011;38045;52.988;6.536;2023-04-03T08:23:52;5.40;;;1.48;;
52033;SDS011;38045;52.988;6.536;2023-04-03T08:26:19;9.52;;;2.00;;
52033;SDS011;38045;52.988;6.536;2023-04-03T08:28:47;10.30;;;2.50;;
52033;SDS011;38045;52.988;6.536;2023-04-03T08:31:14;3.72;;;1.60;;
52033;SDS011;38045;52.988;6.536;2023-04-03T08:33:43;4.50;;;2.33;;
52033;SDS011;38045;52.988;6.536;2023-04-03T08:36:16;8.95;;;2.05;;
52033;SDS011;38045;52.988;6.536;2023-04-03T08:38:44;1.98;;;1.00;;
52033;SDS011;38045;52.988;6.536;2023-04-03T08:41:12;2.83;;;1.35;;
52033;SDS011;38045;52.988;6.536;2023-04-03T08:43:45;4.13;;;1.75;;
52033;SDS011;38045;52.988;6.536;2023-04-03T08:46:48;4.10;;;1.25;;
52033;SDS011;38045;52.988;6.536;2023-04-03T08:49:40;2.83;;;1.30;;
52033;SDS011;38045;52.988;6.536;2023-04-03T08:52:59;2.45;;;1.00;;
52033;SDS011;38045;52.988;6.536;2023-04-03T08:55:25;5.07;;;1.45;;
52033;SDS011;38045;52.988;6.536;2023-04-03T08:58:18;2.50;;;1.08;;
52033;SDS011;38045;52.988;6.536;2023-04-03T09:00:51;3.80;;;0.88;;
52033;SDS011;38045;52.988;6.536;2023-04-03T09:03:23;2.20;;;1.42;;
52033;SDS011;38045;52.988;6.536;2023-04-03T09:05:53;2.22;;;0.98;;
52033;SDS011;38045;52.988;6.536;2023-04-03T09:13:57;7.75;;;1.73;;
52033;SDS011;38045;52.988;6.536;2023-04-03T09:19:02;0.55;;;0.35;;
52033;SDS011;38045;52.988;6.536;2023-04-03T09:21:51;3.42;;;1.08;;
52033;SDS011;38045;52.988;6.536;2023-04-03T09:24:18;5.35;;;1.17;;
52033;SDS011;38045;52.988;6.536;2023-04-03T09:26:58;1.40;;;0.70;;
52033;SDS011;38045;52.988;6.536;2023-04-03T09:29:28;2.60;;;0.63;;
52033;SDS011;38045;52.988;6.536;2023-04-03T09:32:11;3.92;;;1.48;;
52033;SDS011;38045;52.988;6.536;2023-04-03T09:34:45;0.95;;;0.70;;
52033;SDS011;38045;52.988;6.536;2023-04-03T09:37:32;1.10;;;1.00;;
52033;SDS011;38045;52.988;6.536;2023-04-03T09:40:27;0.82;;;0.57;;
52033;SDS011;38045;52.988;6.536;2023-04-03T09:42:59;1.52;;;1.15;;
52033;SDS011;38045;52.988;6.536;2023-04-03T09:45:31;0.77;;;0.63;;
52033;SDS011;38045;52.988;6.536;2023-04-03T09:53:34;3.72;;;0.50;;
52033;SDS011;38045;52.988;6.536;2023-04-03T09:56:09;3.25;;;1.48;;
52033;SDS011;38045;52.988;6.536;2023-04-03T09:59:08;0.80;;;0.77;;
52033;SDS011;38045;52.988;6.536;2023-04-03T10:01:39;2.38;;;1.00;;
52033;SDS011;38045;52.988;6.536;2023-04-03T10:04:14;0.88;;;0.65;;
52033;SDS011;38045;52.988;6.536;2023-04-03T10:06:43;1.25;;;0.50;;
52033;SDS011;38045;52.988;6.536;2023-04-03T10:09:29;1.88;;;1.25;;
52033;SDS011;38045;52.988;6.536;2023-04-03T10:12:29;2.20;;;0.85;;
52033;SDS011;38045;52.988;6.536;2023-04-03T10:14:58;0.82;;;0.50;;
52033;SDS011;38045;52.988;6.536;2023-04-03T10:25:40;3.22;;;0.68;;
52033;SDS011;38045;52.988;6.536;2023-04-03T10:28:31;4.18;;;0.70;;
52033;SDS011;38045;52.988;6.536;2023-04-03T10:31:10;1.33;;;0.80;;
52033;SDS011;38045;52.988;6.536;2023-04-03T10:42:13;1.65;;;0.30;;
52033;SDS011;38045;52.988;6.536;2023-04-03T10:45:01;4.35;;;1.25;;
52033;SDS011;38045;52.988;6.536;2023-04-03T10:50:52;2.67;;;0.70;;
52033;SDS011;38045;52.988;6.536;2023-04-03T10:54:37;1.70;;;0.93;;
52033;SDS011;38045;52.988;6.536;2023-04-03T10:56:54;3.90;;;0.73;;
52033;SDS011;38045;52.988;6.536;2023-04-03T11:05:07;2.58;;;0.75;;
52033;SDS011;38045;52.988;6.536;2023-04-03T11:07:59;3.35;;;1.00;;
52033;SDS011;38045;52.988;6.536;2023-04-03T11:13:11;0.60;;;0.40;;
52033;SDS011;38045;52.988;6.536;2023-04-03T11:15:44;6.68;;;0.77;;
52033;SDS011;38045;52.988;6.536;2023-04-03T11:18:27;3.03;;;0.75;;
52033;SDS011;38045;52.988;6.536;2023-04-03T11:21:01;1.48;;;0.65;;
52033;SDS011;38045;52.988;6.536;2023-04-03T11:23:33;3.85;;;0.70;;
52033;SDS011;38045;52.988;6.536;2023-04-03T11:26:11;0.93;;;0.43;;
52033;SDS011;38045;52.988;6.536;2023-04-03T11:28:38;1.95;;;0.80;;
52033;SDS011;38045;52.988;6.536;2023-04-03T11:36:45;2.42;;;0.52;;
52033;SDS011;38045;52.988;6.536;2023-04-03T11:39:20;1.73;;;1.10;;
52033;SDS011;38045;52.988;6.536;2023-04-03T11:41:50;0.90;;;0.60;;
52033;SDS011;38045;52.988;6.536;2023-04-03T11:44:36;2.58;;;1.42;;
52033;SDS011;38045;52.988;6.536;2023-04-03T11:47:04;2.08;;;0.88;;
52033;SDS011;38045;52.988;6.536;2023-04-03T12:08:43;2.13;;;1.08;;
52033;SDS011;38045;52.988;6.536;2023-04-03T12:13:37;2.97;;;1.23;;
52033;SDS011;38045;52.988;6.536;2023-04-03T12:16:42;1.33;;;0.63;;
52033;SDS011;38045;52.988;6.536;2023-04-03T12:26:50;2.13;;;0.90;;
52033;SDS011;38045;52.988;6.536;2023-04-03T12:37:39;1.30;;;0.90;;
52033;SDS011;38045;52.988;6.536;2023-04-03T12:40:21;1.48;;;1.38;;
52033;SDS011;38045;52.988;6.536;2023-04-03T12:45:56;2.55;;;0.93;;
52033;SDS011;38045;52.988;6.536;2023-04-03T12:48:24;3.35;;;1.10;;
52033;SDS011;38045;52.988;6.536;2023-04-03T12:50:52;5.18;;;1.73;;
52033;SDS011;38045;52.988;6.536;2023-04-03T12:53:21;2.22;;;0.88;;
52033;SDS011;38045;52.988;6.536;2023-04-03T12:55:55;1.75;;;0.80;;
52033;SDS011;38045;52.988;6.536;2023-04-03T12:58:23;0.73;;;0.73;;
52033;SDS011;38045;52.988;6.536;2023-04-03T13:03:40;1.17;;;1.08;;
52033;SDS011;38045;52.988;6.536;2023-04-03T13:06:20;1.38;;;0.65;;
52033;SDS011;38045;52.988;6.536;2023-04-03T13:09:06;2.20;;;0.93;;
52033;SDS011;38045;52.988;6.536;2023-04-03T13:11:43;2.22;;;0.70;;
52033;SDS011;38045;52.988;6.536;2023-04-03T13:14:18;1.85;;;1.42;;
52033;SDS011;38045;52.988;6.536;2023-04-03T13:16:59;1.50;;;0.50;;
52033;SDS011;38045;52.988;6.536;2023-04-03T13:19:29;2.03;;;0.90;;
52033;SDS011;38045;52.988;6.536;2023-04-03T13:24:25;2.35;;;0.70;;
52033;SDS011;38045;52.988;6.536;2023-04-03T13:26:54;2.83;;;1.17;;
52033;SDS011;38045;52.988;6.536;2023-04-03T13:29:34;1.38;;;0.85;;
52033;SDS011;38045;52.988;6.536;2023-04-03T13:32:02;1.10;;;0.85;;
52033;SDS011;38045;52.988;6.536;2023-04-03T13:34:35;3.10;;;1.65;;
52033;SDS011;38045;52.988;6.536;2023-04-03T13:37:03;0.98;;;0.50;;
52033;SDS011;38045;52.988;6.536;2023-04-03T13:39:33;2.40;;;0.63;;
52033;SDS011;38045;52.988;6.536;2023-04-03T13:42:01;3.05;;;0.98;;
52033;SDS011;38045;52.988;6.536;2023-04-03T13:45:34;1.25;;;0.80;;
52033;SDS011;38045;52.988;6.536;2023-04-03T13:48:08;3.15;;;1.40;;
52033;SDS011;38045;52.988;6.536;2023-04-03T13:50:50;3.40;;;1.13;;
52033;SDS011;38045;52.988;6.536;2023-04-03T13:53:34;1.67;;;1.25;;
52033;SDS011;38045;52.988;6.536;2023-04-03T13:56:19;1.52;;;0.63;;
52033;SDS011;38045;52.988;6.536;2023-04-03T13:58:55;0.55;;;0.55;;
52033;SDS011;38045;52.988;6.536;2023-04-03T14:01:37;1.75;;;0.95;;
52033;SDS011;38045;52.988;6.536;2023-04-03T14:07:08;2.78;;;1.67;;
52033;SDS011;38045;52.988;6.536;2023-04-03T14:09:34;0.80;;;0.80;;
52033;SDS011;38045;52.988;6.536;2023-04-03T14:12:02;1.23;;;0.75;;
52033;SDS011;38045;52.988;6.536;2023-04-03T14:14:33;4.28;;;1.48;;
52033;SDS011;38045;52.988;6.536;2023-04-03T14:17:03;1.13;;;0.93;;
52033;SDS011;38045;52.988;6.536;2023-04-03T14:19:37;2.78;;;1.15;;
52033;SDS011;38045;52.988;6.536;2023-04-03T14:22:11;2.05;;;1.15;;
52033;SDS011;38045;52.988;6.536;2023-04-03T14:24:42;1.05;;;0.98;;
52033;SDS011;38045;52.988;6.536;2023-04-03T14:27:15;2.13;;;0.80;;
52033;SDS011;38045;52.988;6.536;2023-04-03T14:29:47;5.57;;;1.52;;
52033;SDS011;38045;52.988;6.536;2023-04-03T14:32:14;1.55;;;1.23;;
52033;SDS011;38045;52.988;6.536;2023-04-03T14:34:41;2.75;;;1.05;;
52033;SDS011;38045;52.988;6.536;2023-04-03T14:37:12;5.05;;;1.15;;
52033;SDS011;38045;52.988;6.536;2023-04-03T14:39:41;2.60;;;1.08;;
52033;SDS011;38045;52.988;6.536;2023-04-03T14:42:15;0.57;;;0.47;;
52033;SDS011;38045;52.988;6.536;2023-04-03T14:44:43;1.10;;;0.70;;
52033;SDS011;38045;52.988;6.536;2023-04-03T14:47:10;2.88;;;0.85;;
52033;SDS011;38045;52.988;6.536;2023-04-03T14:49:38;1.20;;;0.55;;
52033;SDS011;38045;52.988;6.536;2023-04-03T14:52:05;0.90;;;0.75;;
52033;SDS011;38045;52.988;6.536;2023-04-03T14:54:30;1.20;;;0.90;;
52033;SDS011;38045;52.988;6.536;2023-04-03T14:56:57;0.30;;;0.30;;
52033;SDS011;38045;52.988;6.536;2023-04-03T14:59:24;1.52;;;0.63;;
52033;SDS011;38045;52.988;6.536;2023-04-03T15:01:51;2.72;;;0.93;;
52033;SDS011;38045;52.988;6.536;2023-04-03T15:04:18;3.65;;;0.88;;
52033;SDS011;38045;52.988;6.536;2023-04-03T15:06:45;4.60;;;1.70;;
52033;SDS011;38045;52.988;6.536;2023-04-03T15:09:15;0.60;;;0.60;;
52033;SDS011;38045;52.988;6.536;2023-04-03T15:11:45;2.85;;;1.55;;
52033;SDS011;38045;52.988;6.536;2023-04-03T15:14:11;1.15;;;0.82;;
52033;SDS011;38045;52.988;6.536;2023-04-03T15:16:36;1.50;;;1.08;;
52033;SDS011;38045;52.988;6.536;2023-04-03T15:19:02;2.60;;;1.02;;
52033;SDS011;38045;52.988;6.536;2023-04-03T15:21:28;1.10;;;0.80;;
52033;SDS011;38045;52.988;6.536;2023-04-03T15:23:53;2.88;;;0.90;;
52033;SDS011;38045;52.988;6.536;2023-04-03T15:26:19;2.13;;;0.80;;
52033;SDS011;38045;52.988;6.536;2023-04-03T15:28:45;1.48;;;0.82;;
52033;SDS011;38045;52.988;6.536;2023-04-03T15:31:11;3.10;;;1.20;;
52033;SDS011;38045;52.988;6.536;2023-04-03T15:33:37;2.00;;;0.90;;
52033;SDS011;38045;52.988;6.536;2023-04-03T15:36:03;0.63;;;0.50;;
52033;SDS011;38045;52.988;6.536;2023-04-03T15:38:29;1.33;;;1.15;;
52033;SDS011;38045;52.988;6.536;2023-04-03T15:40:55;2.05;;;0.77;;
52033;SDS011;38045;52.988;6.536;2023-04-03T15:43:21;1.25;;;0.90;;
52033;SDS011;38045;52.988;6.536;2023-04-03T15:45:47;6.60;;;1.88;;
52033;SDS011;38045;52.988;6.536;2023-04-03T15:48:13;1.25;;;0.90;;
52033;SDS011;38045;52.988;6.536;2023-04-03T15:50:40;2.15;;;1.20;;
52033;SDS011;38045;52.988;6.536;2023-04-03T15:53:06;2.85;;;1.02;;
52033;SDS011;38045;52.988;6.536;2023-04-03T15:55:33;1.13;;;0.50;;
52033;SDS011;38045;52.988;6.536;2023-04-03T15:58:00;0.88;;;0.73;;
52033;SDS011;38045;52.988;6.536;2023-04-03T16:00:26;3.97;;;1.15;;
52033;SDS011;38045;52.988;6.536;2023-04-03T16:02:54;1.75;;;0.80;;
52033;SDS011;38045;52.988;6.536;2023-04-03T16:05:24;1.25;;;1.15;;
52033;SDS011;38045;52.988;6.536;2023-04-03T16:07:50;2.35;;;0.85;;
52033;SDS011;38045;52.988;6.536;2023-04-03T16:10:17;1.38;;;0.85;;
52033;SDS011;38045;52.988;6.536;2023-04-03T16:12:43;3.63;;;1.63;;
52033;SDS011;38045;52.988;6.536;2023-04-03T16:15:09;1.00;;;0.60;;
52033;SDS011;38045;52.988;6.536;2023-04-03T16:17:35;2.67;;;1.40;;
52033;SDS011;38045;52.988;6.536;2023-04-03T16:20:03;2.58;;;1.95;;
52033;SDS011;38045;52.988;6.536;2023-04-03T16:22:31;2.23;;;1.67;;
52033;SDS011;38045;52.988;6.536;2023-04-03T16:24:57;2.33;;;1.20;;
52033;SDS011;38045;52.988;6.536;2023-04-03T16:27:22;5.30;;;1.52;;
52033;SDS011;38045;52.988;6.536;2023-04-03T16:29:52;3.80;;;1.48;;
52033;SDS011;38045;52.988;6.536;2023-04-03T16:32:19;2.90;;;1.33;;
52033;SDS011;38045;52.988;6.536;2023-04-03T16:34:45;0.82;;;0.75;;
52033;SDS011;38045;52.988;6.536;2023-04-03T16:37:11;3.55;;;1.45;;
52033;SDS011;38045;52.988;6.536;2023-04-03T16:39:36;2.47;;;1.70;;
52033;SDS011;38045;52.988;6.536;2023-04-03T16:42:02;1.67;;;1.05;;